Terminal Aerodrome Forecast
Issued by NWS Grand Forks, ND

Home | Current Version | Previous Version | Text Only | Print | Product List | Glossary On
Versions: 1 2 3 4 5 6 7 8 9 10 11 12 13
000
FTUS43 KFGF 230520
TAFGFK
TAF
KGFK 230520Z 2306/2406 19007KT P6SM FEW080
     FM231500 19008G18KT P6SM SCT250
     FM232000 20008G16KT P6SM SCT060 BKN250=

USA.gov is the U.S. government's official web portal to all federal, state and local government web resources and services.